createdAt,value
2024-01-21T00:00:53.057Z,99764.66
2024-01-21T00:01:55.609Z,99756.81
2024-01-21T00:02:57.864Z,99760.31
2024-01-21T00:04:00.945Z,99770.88
2024-01-21T00:05:03.807Z,99766.28
2024-01-21T00:06:06.385Z,99763.31
2024-01-21T00:07:08.647Z,99760.59
2024-01-21T00:08:12.147Z,99757.91
2024-01-21T00:09:14.455Z,99764.94
2024-01-21T00:10:18.786Z,99756.00
2024-01-21T00:11:22.234Z,99756.53
2024-01-21T00:12:24.887Z,99761.69
2024-01-21T00:13:26.980Z,99767.09
2024-01-21T00:14:29.044Z,99767.09
2024-01-21T00:15:31.227Z,99773.03
2024-01-21T00:16:34.733Z,99768.72
2024-01-21T00:17:36.688Z,99765.47
2024-01-21T00:18:38.925Z,99765.44
2024-01-21T00:19:44.184Z,99766.00
2024-01-21T00:20:46.437Z,99763.00
2024-01-21T00:21:48.388Z,99762.75
2024-01-21T00:22:50.301Z,99755.16
2024-01-21T00:23:53.206Z,99753.81
2024-01-21T00:24:56.219Z,99749.19
2024-01-21T00:25:59.925Z,99742.72
2024-01-21T00:27:02.117Z,99742.72
2024-01-21T00:28:04.613Z,99740.03
2024-01-21T00:29:06.758Z,99736.22
2024-01-21T00:30:09.318Z,99743.78
2024-01-21T00:31:11.631Z,99735.66
2024-01-21T00:32:13.974Z,99728.41
2024-01-21T00:33:16.069Z,99745.16
2024-01-21T00:34:19.322Z,99744.34
2024-01-21T00:35:21.363Z,99744.34
2024-01-21T00:36:23.605Z,99749.53
2024-01-21T00:37:25.510Z,99737.31
2024-01-21T00:38:27.660Z,99744.34
2024-01-21T00:39:29.824Z,99735.66
2024-01-21T00:40:31.985Z,99742.16
2024-01-21T00:41:34.227Z,99736.75
2024-01-21T00:42:37.048Z,99745.44
2024-01-21T00:43:39.181Z,99738.94
2024-01-21T00:44:41.686Z,99742.16
2024-01-21T00:45:43.726Z,99747.59
2024-01-21T00:46:45.858Z,99737.56
2024-01-21T00:47:48.084Z,99748.13
2024-01-21T00:48:50.904Z,99743.53
2024-01-21T00:49:53.624Z,99742.72
2024-01-21T00:50:55.564Z,99740.00
2024-01-21T00:51:58.586Z,99735.69
2024-01-21T00:53:00.481Z,99739.75
2024-01-21T00:54:02.646Z,99741.38
2024-01-21T00:55:05.118Z,99739.47
2024-01-21T00:56:07.719Z,99731.91
2024-01-21T00:57:10.052Z,99733.53
2024-01-21T00:58:12.306Z,99735.44
2024-01-21T00:59:14.386Z,99729.47
2024-01-21T01:00:17.147Z,99728.66
2024-01-21T01:01:19.602Z,99721.88
2024-01-21T01:02:21.534Z,99724.34
2024-01-21T01:03:23.736Z,99721.91
2024-01-21T01:04:26.302Z,99720.53
2024-01-21T01:05:28.317Z,99714.06
2024-01-21T01:06:30.391Z,99725.97
2024-01-21T01:07:32.572Z,99720.56
2024-01-21T01:08:34.951Z,99718.13
2024-01-21T01:09:37.821Z,99718.94
2024-01-21T01:10:39.919Z,99718.94
2024-01-21T01:11:41.879Z,99713.50
2024-01-21T01:12:44.392Z,99711.34
2024-01-21T01:13:46.466Z,99709.19
2024-01-21T01:14:49.675Z,99703.25
2024-01-21T01:15:51.964Z,99706.47
2024-01-21T01:16:54.070Z,99710.50
2024-01-21T01:17:56.050Z,99709.16
2024-01-21T01:18:58.895Z,99707.00
2024-01-21T01:20:01.221Z,99705.63
2024-01-21T01:21:04.031Z,99710.78
2024-01-21T01:22:07.946Z,99709.69
2024-01-21T01:23:10.444Z,99713.50
2024-01-21T01:24:12.549Z,99713.19
2024-01-21T01:25:14.774Z,99711.84
2024-01-21T01:26:17.729Z,99715.09
2024-01-21T01:27:20.013Z,99718.06
2024-01-21T01:28:22.416Z,99715.34
2024-01-21T01:29:24.546Z,99718.03
2024-01-21T01:30:26.988Z,99708.03
2024-01-21T01:31:29.382Z,99712.91
2024-01-21T01:32:31.544Z,99718.56
2024-01-21T01:33:34.434Z,99713.69
2024-01-21T01:34:36.591Z,99715.06
2024-01-21T01:35:39.009Z,99714.50
2024-01-21T01:36:41.208Z,99713.16
2024-01-21T01:37:43.373Z,99708.25
2024-01-21T01:38:48.200Z,99707.16
2024-01-21T01:39:50.679Z,99712.28
2024-01-21T01:40:52.655Z,99708.50
2024-01-21T01:41:55.831Z,99707.94
2024-01-21T01:43:03.495Z,99713.59
2024-01-21T01:44:05.714Z,99712.81
2024-01-21T01:45:08.137Z,99713.34
2024-01-21T01:46:10.499Z,99704.97
2024-01-21T01:47:12.571Z,99713.06
2024-01-21T01:48:15.800Z,99717.34
2024-01-21T01:49:18.256Z,99705.72
2024-01-21T01:50:20.835Z,99714.38
2024-01-21T01:51:23.687Z,99707.63
2024-01-21T01:52:26.140Z,99704.13
2024-01-21T01:53:30.921Z,99709.78
2024-01-21T01:54:36.221Z,99708.13
2024-01-21T01:55:38.758Z,99700.84
2024-01-21T01:56:41.212Z,99698.94
2024-01-21T01:57:46.267Z,99711.63
2024-01-21T01:58:50.478Z,99704.34
2024-01-21T01:59:52.457Z,99701.06
2024-01-21T02:00:55.212Z,99705.38
2024-01-21T02:01:58.945Z,99696.47
2024-01-21T02:03:01.164Z,99698.34
2024-01-21T02:04:04.582Z,99689.16
2024-01-21T02:05:07.222Z,99688.59
2024-01-21T02:06:09.314Z,99688.59
2024-01-21T02:07:11.371Z,99686.69
2024-01-21T02:08:13.919Z,99681.84
2024-01-21T02:09:16.006Z,99678.59
2024-01-21T02:10:18.247Z,99677.78
2024-01-21T02:11:21.368Z,99672.66
2024-01-21T02:12:24.892Z,99669.63
2024-01-21T02:13:30.287Z,99666.91
2024-01-21T02:14:32.565Z,99670.69
2024-01-21T02:15:36.162Z,99656.66
2024-01-21T02:16:38.472Z,99665.81
2024-01-21T02:17:41.677Z,99660.69
2024-01-21T02:18:47.878Z,99661.78
2024-01-21T02:19:50.246Z,99655.56
2024-01-21T02:20:52.641Z,99659.34
2024-01-21T02:21:55.487Z,99637.72
2024-01-21T02:23:00.310Z,99645.28
2024-01-21T02:24:03.606Z,99647.69
2024-01-21T02:25:05.825Z,99636.09
2024-01-21T02:26:07.728Z,99645.00
2024-01-21T02:27:09.745Z,99641.22
2024-01-21T02:28:12.069Z,99639.59
2024-01-21T02:29:15.905Z,99634.94
2024-01-21T02:30:22.756Z,99635.50
2024-01-21T02:31:25.040Z,99641.97
2024-01-21T02:32:28.101Z,99641.97
2024-01-21T02:33:30.397Z,99646.56
2024-01-21T02:34:32.683Z,99643.31
2024-01-21T02:35:34.938Z,99639.53
2024-01-21T02:36:36.938Z,99641.69
2024-01-21T02:37:39.012Z,99649.25
2024-01-21T02:38:41.275Z,99643.31
2024-01-21T02:39:43.270Z,99644.06
2024-01-21T02:40:45.341Z,99656.22
2024-01-21T02:41:47.759Z,99659.44
2024-01-21T02:42:49.801Z,99649.19
2024-01-21T02:43:51.785Z,99652.97
2024-01-21T02:44:56.119Z,99650.53
2024-01-21T02:45:58.797Z,99653.22
2024-01-21T02:47:00.925Z,99652.41
2024-01-21T02:48:03.220Z,99657.81
2024-01-21T02:49:05.280Z,99653.19
2024-01-21T02:50:08.291Z,99657.75
2024-01-21T02:51:15.233Z,99656.41
2024-01-21T02:52:17.321Z,99653.44
2024-01-21T02:53:19.836Z,99661.00
2024-01-21T02:54:21.788Z,99653.97
2024-01-21T02:55:23.935Z,99658.81
2024-01-21T02:56:27.697Z,99666.09
2024-01-21T02:57:29.933Z,99663.91
2024-01-21T02:58:31.835Z,99671.72
2024-01-21T02:59:33.841Z,99671.19
2024-01-21T03:00:36.461Z,99668.75
2024-01-21T03:01:38.718Z,99674.38
2024-01-21T03:02:41.907Z,99675.97
2024-01-21T03:03:44.587Z,99679.47
2024-01-21T03:04:46.926Z,99682.41
2024-01-21T03:05:49.655Z,99681.88
2024-01-21T03:06:52.539Z,99689.41
2024-01-21T03:07:56.009Z,99681.31
2024-01-21T03:08:58.655Z,99685.09
2024-01-21T03:10:01.394Z,99682.38
2024-01-21T03:11:04.159Z,99681.84
2024-01-21T03:12:07.318Z,99678.81
2024-01-21T03:13:09.746Z,99686.09
2024-01-21T03:14:12.324Z,99674.75
2024-01-21T03:15:15.550Z,99675.03
2024-01-21T03:16:18.125Z,99673.41
2024-01-21T03:17:20.611Z,99672.59
2024-01-21T03:18:23.386Z,99668.28
2024-01-21T03:19:25.842Z,99665.03
2024-01-21T03:20:28.465Z,99666.91
2024-01-21T03:21:31.149Z,99661.19
2024-01-21T03:22:33.754Z,99663.91
2024-01-21T03:23:36.616Z,99660.38
2024-01-21T03:24:39.434Z,99663.34
2024-01-21T03:25:42.363Z,99656.59
2024-01-21T03:26:44.958Z,99657.66
2024-01-21T03:27:49.836Z,99655.22
2024-01-21T03:28:52.519Z,99654.41
2024-01-21T03:29:56.760Z,99646.56
2024-01-21T03:30:59.281Z,99642.50
2024-01-21T03:32:01.995Z,99640.34
2024-01-21T03:33:04.598Z,99630.38
2024-01-21T03:34:07.118Z,99632.25
2024-01-21T03:35:10.783Z,99630.06
2024-01-21T03:36:13.589Z,99624.94
2024-01-21T03:37:15.998Z,99624.38
2024-01-21T03:38:18.330Z,99619.22
2024-01-21T03:39:20.838Z,99619.50
2024-01-21T03:40:23.534Z,99616.81
2024-01-21T03:41:26.049Z,99607.09
2024-01-21T03:42:28.581Z,99619.22
2024-01-21T03:43:31.318Z,99617.31
2024-01-21T03:44:33.870Z,99612.44
2024-01-21T03:45:36.998Z,99612.44
2024-01-21T03:46:39.315Z,99612.69
2024-01-21T03:47:41.934Z,99613.75
2024-01-21T03:48:46.423Z,99619.97
2024-01-21T03:49:49.119Z,99604.28
2024-01-21T03:50:51.499Z,99612.38
2024-01-21T03:51:53.897Z,99616.13
2024-01-21T03:52:56.474Z,99609.94
2024-01-21T03:53:58.894Z,99617.19
2024-01-21T03:55:02.826Z,99616.66
2024-01-21T03:56:05.851Z,99616.06
2024-01-21T03:57:08.236Z,99619.03
2024-01-21T03:58:11.180Z,99616.31
2024-01-21T03:59:13.702Z,99619.28
2024-01-21T04:00:16.565Z,99619.28
2024-01-21T04:01:19.419Z,99614.16
2024-01-21T04:02:23.871Z,99621.41
2024-01-21T04:03:26.621Z,99617.09
2024-01-21T04:04:30.065Z,99613.84
2024-01-21T04:05:32.450Z,99614.13
2024-01-21T04:06:43.645Z,99611.44
2024-01-21T04:07:46.335Z,99613.53
2024-01-21T04:08:49.230Z,99607.59
2024-01-21T04:09:52.134Z,99604.09
2024-01-21T04:10:55.245Z,99597.88
2024-01-21T04:11:58.385Z,99595.47
2024-01-21T04:13:01.508Z,99592.22
2024-01-21T04:14:04.916Z,99592.22
2024-01-21T04:15:07.586Z,99592.47
2024-01-21T04:16:10.985Z,99591.06
2024-01-21T04:17:13.830Z,99591.88
2024-01-21T04:18:16.405Z,99590.53
2024-01-21T04:19:19.831Z,99592.16
2024-01-21T04:20:22.246Z,99596.97
2024-01-21T04:21:24.672Z,99591.03
2024-01-21T04:22:27.282Z,99598.06
2024-01-21T04:23:30.035Z,99596.69
2024-01-21T04:24:32.569Z,99596.13
2024-01-21T04:25:34.882Z,99593.66
2024-01-21T04:26:37.102Z,99598.00
2024-01-21T04:27:39.540Z,99600.94
2024-01-21T04:28:41.977Z,99595.00
2024-01-21T04:29:44.275Z,99596.06
2024-01-21T04:30:46.690Z,99589.88
2024-01-21T04:31:49.206Z,99594.44
2024-01-21T04:32:51.953Z,99599.00
2024-01-21T04:33:54.396Z,99596.56
2024-01-21T04:34:56.812Z,99587.13
2024-01-21T04:35:59.295Z,99590.63
2024-01-21T04:37:02.708Z,99589.03
2024-01-21T04:38:05.461Z,99595.44
2024-01-21T04:39:09.239Z,99587.63
2024-01-21T04:40:12.218Z,99587.88
2024-01-21T04:41:15.165Z,99579.81
2024-01-21T04:42:18.006Z,99584.38
2024-01-21T04:43:20.945Z,99590.81
2024-01-21T04:44:23.385Z,99585.69
2024-01-21T04:45:25.720Z,99578.41
2024-01-21T04:46:28.130Z,99585.97
2024-01-21T04:47:30.687Z,99582.13
2024-01-21T04:48:34.068Z,99588.31
2024-01-21T04:49:36.536Z,99581.53
2024-01-21T04:50:38.867Z,99584.22
2024-01-21T04:51:41.195Z,99583.69
2024-01-21T04:52:43.782Z,99585.81
2024-01-21T04:53:46.710Z,99579.63
2024-01-21T04:54:49.760Z,99591.19
2024-01-21T04:55:54.112Z,99587.94
2024-01-21T04:56:56.904Z,99589.56
2024-01-21T04:57:59.252Z,99586.31
2024-01-21T04:59:02.088Z,99594.41
2024-01-21T05:00:05.113Z,99592.75
2024-01-21T05:01:07.519Z,99598.97
2024-01-21T05:02:09.831Z,99600.00
2024-01-21T05:03:12.213Z,99597.81
2024-01-21T05:04:14.725Z,99598.09
2024-01-21T05:05:17.572Z,99599.97
2024-01-21T05:06:20.937Z,99593.50
2024-01-21T05:07:26.458Z,99602.09
2024-01-21T05:08:30.251Z,99602.09
2024-01-21T05:09:32.591Z,99608.53
2024-01-21T05:10:35.293Z,99606.13
2024-01-21T05:11:39.864Z,99616.28
2024-01-21T05:12:42.440Z,99617.09
2024-01-21T05:13:51.243Z,99622.72
2024-01-21T05:14:57.667Z,99626.50
2024-01-21T05:16:00.541Z,99627.56
2024-01-21T05:17:02.876Z,99632.38
2024-01-21T05:18:05.878Z,99626.19
2024-01-21T05:19:08.499Z,99633.44
2024-01-21T05:20:12.272Z,99639.09
2024-01-21T05:21:21.151Z,99642.59
2024-01-21T05:22:24.027Z,99653.81
2024-01-21T05:23:26.383Z,99648.44
2024-01-21T05:24:29.018Z,99639.81
2024-01-21T05:25:31.403Z,99647.63
2024-01-21T05:26:34.180Z,99647.31
2024-01-21T05:27:37.089Z,99646.50
2024-01-21T05:28:40.820Z,99650.25
2024-01-21T05:29:44.311Z,99654.84
2024-01-21T05:30:46.710Z,99648.63
2024-01-21T05:31:49.153Z,99648.09
2024-01-21T05:32:52.527Z,99649.16
2024-01-21T05:33:56.003Z,99644.81
2024-01-21T05:34:58.546Z,99650.44
2024-01-21T05:36:01.037Z,99655.00
2024-01-21T05:37:03.566Z,99654.44
2024-01-21T05:38:07.460Z,99665.19
2024-01-21T05:39:10.246Z,99658.75
2024-01-21T05:40:12.824Z,99662.75
2024-01-21T05:41:18.601Z,99665.44
2024-01-21T05:42:21.221Z,99661.13
2024-01-21T05:43:23.756Z,99665.97
2024-01-21T05:44:28.042Z,99661.38
2024-01-21T05:45:30.701Z,99658.44
2024-01-21T05:46:34.135Z,99664.34
2024-01-21T05:47:36.488Z,99661.84
2024-01-21T05:48:39.030Z,99660.78
2024-01-21T05:49:41.879Z,99663.75
2024-01-21T05:50:45.076Z,99667.25
2024-01-21T05:51:47.970Z,99662.09
2024-01-21T05:52:50.226Z,99673.94
2024-01-21T05:53:52.863Z,99670.69
2024-01-21T05:54:55.687Z,99672.31
2024-01-21T05:55:58.192Z,99680.38
2024-01-21T05:57:00.521Z,99674.19
2024-01-21T05:58:03.587Z,99689.50
2024-01-21T05:59:09.005Z,99686.00
2024-01-21T06:00:12.199Z,99690.56
2024-01-21T06:01:14.921Z,99694.31
2024-01-21T06:02:19.820Z,99684.63
2024-01-21T06:03:23.892Z,99692.69
2024-01-21T06:04:26.844Z,99696.19
2024-01-21T06:05:29.506Z,99690.00
2024-01-21T06:06:31.950Z,99690.00
2024-01-21T06:07:34.488Z,99685.91
2024-01-21T06:08:37.201Z,99684.06
2024-01-21T06:09:39.541Z,99684.06
2024-01-21T06:10:42.101Z,99682.19
2024-01-21T06:11:47.635Z,99678.69
2024-01-21T06:12:50.029Z,99679.72
2024-01-21T06:13:52.661Z,99677.84
2024-01-21T06:14:54.934Z,99675.16
2024-01-21T06:16:01.548Z,99670.63
2024-01-21T06:17:07.011Z,99667.09
2024-01-21T06:18:10.173Z,99660.91
2024-01-21T06:19:12.775Z,99657.38
2024-01-21T06:20:15.794Z,99647.34
2024-01-21T06:21:19.604Z,99653.88
2024-01-21T06:22:22.115Z,99652.25
2024-01-21T06:23:24.656Z,99654.13
2024-01-21T06:24:27.130Z,99651.69
2024-01-21T06:25:29.520Z,99654.94
2024-01-21T06:26:32.084Z,99647.09
2024-01-21T06:27:34.516Z,99641.97
2024-01-21T06:28:37.283Z,99647.34
2024-01-21T06:29:41.390Z,99644.66
2024-01-21T06:30:43.929Z,99652.75
2024-01-21T06:31:46.880Z,99653.81
2024-01-21T06:32:57.099Z,99647.34
2024-01-21T06:34:05.280Z,99649.25
2024-01-21T06:35:08.418Z,99644.09
2024-01-21T06:36:11.141Z,99648.41
2024-01-21T06:37:13.778Z,99651.38
2024-01-21T06:38:16.404Z,99647.03
2024-01-21T06:39:19.125Z,99640.84
2024-01-21T06:40:21.843Z,99645.44
2024-01-21T06:41:24.274Z,99642.94
2024-01-21T06:42:27.222Z,99635.94
2024-01-21T06:43:29.569Z,99640.25
2024-01-21T06:44:32.409Z,99636.75
2024-01-21T06:45:35.160Z,99644.84
2024-01-21T06:46:38.693Z,99636.19
2024-01-21T06:47:41.760Z,99640.75
2024-01-21T06:48:44.610Z,99640.75
2024-01-21T06:49:47.107Z,99632.13
2024-01-21T06:50:51.814Z,99634.56
2024-01-21T06:51:57.087Z,99637.25
2024-01-21T06:53:00.949Z,99632.94
2024-01-21T06:54:04.587Z,99638.31
2024-01-21T06:55:07.735Z,99635.06
2024-01-21T06:56:10.268Z,99627.25
2024-01-21T06:57:13.031Z,99633.44
2024-01-21T06:58:15.701Z,99637.19
2024-01-21T06:59:18.796Z,99640.69
2024-01-21T07:00:21.694Z,99635.31
2024-01-21T07:01:24.551Z,99633.09
2024-01-21T07:02:27.024Z,99634.16
2024-01-21T07:03:30.280Z,99632.28
2024-01-21T07:04:34.228Z,99630.41
2024-01-21T07:05:36.913Z,99634.41
2024-01-21T07:06:40.499Z,99627.16
2024-01-21T07:07:44.309Z,99629.28
2024-01-21T07:08:46.683Z,99637.91
2024-01-21T07:09:50.439Z,99630.34
2024-01-21T07:10:52.959Z,99639.22
2024-01-21T07:11:56.324Z,99635.72
2024-01-21T07:12:58.881Z,99635.72
2024-01-21T07:14:01.232Z,99641.34
2024-01-21T07:15:04.051Z,99645.91
2024-01-21T07:16:07.657Z,99643.13
2024-01-21T07:17:12.436Z,99646.97
2024-01-21T07:18:15.651Z,99647.19
2024-01-21T07:19:18.385Z,99650.72
2024-01-21T07:20:21.428Z,99652.81
2024-01-21T07:21:24.767Z,99663.56
2024-01-21T07:22:27.217Z,99653.06
2024-01-21T07:23:31.363Z,99663.81
2024-01-21T07:24:34.130Z,99668.38
2024-01-21T07:25:36.689Z,99663.25
2024-01-21T07:26:41.251Z,99664.31
2024-01-21T07:27:44.301Z,99663.25
2024-01-21T07:28:48.210Z,99664.31
2024-01-21T07:29:50.816Z,99664.56
2024-01-21T07:30:54.195Z,99676.38
2024-01-21T07:31:57.368Z,99658.84
2024-01-21T07:33:03.080Z,99659.66
2024-01-21T07:34:10.592Z,99664.00
2024-01-21T07:35:13.220Z,99668.78
2024-01-21T07:36:15.851Z,99670.66
2024-01-21T07:37:18.466Z,99666.34
2024-01-21T07:38:20.871Z,99669.03
2024-01-21T07:39:26.084Z,99659.09
2024-01-21T07:40:31.780Z,99658.53
2024-01-21T07:41:34.687Z,99656.66
2024-01-21T07:42:38.452Z,99665.78
2024-01-21T07:43:40.938Z,99651.53
2024-01-21T07:44:43.347Z,99651.53
2024-01-21T07:45:45.803Z,99648.84
2024-01-21T07:46:50.104Z,99648.84
2024-01-21T07:47:52.934Z,99646.41
2024-01-21T07:48:55.365Z,99640.22
2024-01-21T07:49:57.898Z,99642.91
2024-01-21T07:51:00.777Z,99648.28
2024-01-21T07:52:03.119Z,99650.41
2024-01-21T07:53:06.571Z,99653.91
2024-01-21T07:54:12.370Z,99650.97
2024-01-21T07:55:15.004Z,99667.09
2024-01-21T07:56:17.481Z,99661.97
2024-01-21T07:57:19.885Z,99668.13
2024-01-21T07:58:22.225Z,99661.16
2024-01-21T07:59:24.844Z,99668.13
2024-01-21T08:00:27.515Z,99668.38
2024-01-21T08:01:30.167Z,99669.19
2024-01-21T08:02:32.550Z,99678.06
2024-01-21T08:03:35.084Z,99673.75
2024-01-21T08:04:37.624Z,99683.69
2024-01-21T08:05:40.962Z,99677.47
2024-01-21T08:06:43.570Z,99673.75
2024-01-21T08:07:46.458Z,99677.47
2024-01-21T08:08:49.531Z,99672.84
2024-01-21T08:09:51.845Z,99678.53
2024-01-21T08:10:54.177Z,99676.66
2024-01-21T08:11:57.231Z,99682.03
2024-01-21T08:12:59.594Z,99682.84
2024-01-21T08:14:02.236Z,99682.84
2024-01-21T08:15:05.533Z,99684.72
2024-01-21T08:16:07.957Z,99691.75
2024-01-21T08:17:10.552Z,99690.09
2024-01-21T08:18:15.056Z,99696.53
2024-01-21T08:19:19.038Z,99697.34
2024-01-21T08:20:22.030Z,99693.84
2024-01-21T08:21:24.462Z,99698.16
2024-01-21T08:22:27.065Z,99698.97
2024-01-21T08:23:29.433Z,99691.97
2024-01-21T08:24:35.145Z,99691.41
2024-01-21T08:25:39.451Z,99693.59
2024-01-21T08:26:43.845Z,99690.09
2024-01-21T08:27:46.434Z,99686.38
2024-01-21T08:28:48.876Z,99689.53
2024-01-21T08:29:51.323Z,99694.66
2024-01-21T08:30:55.058Z,99694.09
2024-01-21T08:31:57.694Z,99690.34
2024-01-21T08:33:01.728Z,99688.47
2024-01-21T08:34:04.221Z,99689.28
2024-01-21T08:35:08.186Z,99690.09
2024-01-21T08:36:11.431Z,99684.72
2024-01-21T08:37:14.037Z,99680.41
2024-01-21T08:38:16.498Z,99673.41
2024-01-21T08:39:19.298Z,99672.59
2024-01-21T08:40:21.901Z,99666.16
2024-01-21T08:41:24.416Z,99668.03
2024-01-21T08:42:27.217Z,99680.09
2024-01-21T08:43:29.824Z,99670.72
2024-01-21T08:44:32.184Z,99670.97
2024-01-21T08:45:34.653Z,99671.78
2024-01-21T08:46:37.358Z,99666.41
2024-01-21T08:47:41.131Z,99664.53
2024-01-21T08:48:48.333Z,99664.28
2024-01-21T08:49:51.353Z,99661.59
2024-01-21T08:50:55.971Z,99664.28
2024-01-21T08:51:59.486Z,99660.53
2024-01-21T08:53:01.854Z,99665.91
2024-01-21T08:54:04.246Z,99671.28
2024-01-21T08:55:07.554Z,99672.34
2024-01-21T08:56:10.042Z,99685.78
2024-01-21T08:57:12.872Z,99683.09
2024-01-21T08:58:15.610Z,99685.78
2024-01-21T08:59:17.987Z,99694.44
2024-01-21T09:00:20.593Z,99690.09
2024-01-21T09:01:23.532Z,99699.81
2024-01-21T09:02:26.658Z,99705.19
2024-01-21T09:03:29.271Z,99703.06
2024-01-21T09:04:32.165Z,99699.56
2024-01-21T09:05:34.760Z,99701.19
2024-01-21T09:06:44.006Z,99701.78
2024-01-21T09:07:46.798Z,99707.97
2024-01-21T09:08:55.056Z,99699.66
2024-01-21T09:09:57.802Z,99705.84
2024-01-21T09:11:00.238Z,99692.31
2024-01-21T09:12:03.664Z,99692.66
2024-01-21T09:13:07.495Z,99695.09
2024-01-21T09:14:10.279Z,99696.72
2024-01-21T09:15:13.152Z,99695.09
2024-01-21T09:16:20.762Z,99687.91
2024-01-21T09:17:24.725Z,99685.91
2024-01-21T09:18:27.358Z,99681.09
2024-01-21T09:19:30.120Z,99673.59
2024-01-21T09:20:33.095Z,99670.41
2024-01-21T09:21:39.915Z,99673.09
2024-01-21T09:22:42.536Z,99686.53
2024-01-21T09:23:45.333Z,99682.00
2024-01-21T09:24:49.205Z,99673.09
2024-01-21T09:25:51.908Z,99685.50
2024-01-21T09:26:54.391Z,99680.34
2024-01-21T09:27:56.887Z,99679.53
2024-01-21T09:28:59.592Z,99679.53
2024-01-21T09:30:02.459Z,99692.97
2024-01-21T09:31:05.229Z,99688.41
2024-01-21T09:32:09.482Z,99682.22
2024-01-21T09:33:13.400Z,99683.84
2024-01-21T09:34:16.072Z,99685.72
2024-01-21T09:35:18.834Z,99690.28
2024-01-21T09:36:21.582Z,99689.72
2024-01-21T09:37:24.709Z,99702.09
2024-01-21T09:38:27.785Z,99699.41
2024-01-21T09:39:30.129Z,99707.22
2024-01-21T09:40:33.065Z,99711.78
2024-01-21T09:41:40.082Z,99717.50
2024-01-21T09:42:43.908Z,99723.13
2024-01-21T09:43:46.312Z,99733.38
2024-01-21T09:44:48.745Z,99724.75
2024-01-21T09:45:52.180Z,99732.56
2024-01-21T09:46:59.138Z,99721.56
2024-01-21T09:48:03.088Z,99732.31
2024-01-21T09:49:08.354Z,99735.00
2024-01-21T09:50:14.349Z,99728.56
2024-01-21T09:51:19.406Z,99731.25
2024-01-21T09:52:23.511Z,99738.25
2024-01-21T09:53:25.913Z,99732.66
2024-01-21T09:54:28.713Z,99736.16
2024-01-21T09:55:31.137Z,99742.13
2024-01-21T09:56:33.881Z,99735.91
2024-01-21T09:57:37.668Z,99729.25
2024-01-21T09:58:50.116Z,99728.75
2024-01-21T09:59:52.589Z,99723.63
2024-01-21T10:00:55.158Z,99727.69
2024-01-21T10:01:57.573Z,99729.56
2024-01-21T10:02:59.983Z,99725.00
2024-01-21T10:04:02.356Z,99717.75
2024-01-21T10:05:05.440Z,99716.94
2024-01-21T10:06:09.216Z,99716.69
2024-01-21T10:07:13.264Z,99711.31
2024-01-21T10:08:16.655Z,99726.13
2024-01-21T10:09:23.389Z,99713.03
2024-01-21T10:10:25.971Z,99713.28
2024-01-21T10:11:28.436Z,99708.47
2024-01-21T10:12:30.767Z,99704.16
2024-01-21T10:13:35.381Z,99710.09
2024-01-21T10:14:37.963Z,99719.22
2024-01-21T10:15:40.424Z,99720.59
2024-01-21T10:16:44.189Z,99706.09
2024-01-21T10:17:46.882Z,99700.47
2024-01-21T10:18:49.682Z,99693.22
2024-01-21T10:19:55.174Z,99698.34
2024-01-21T10:21:04.619Z,99699.75
2024-01-21T10:22:17.907Z,99698.19
2024-01-21T10:23:20.619Z,99697.88
2024-01-21T10:24:24.669Z,99697.88
2024-01-21T10:25:27.075Z,99704.06
2024-01-21T10:26:29.417Z,99695.75
2024-01-21T10:27:32.059Z,99697.38
2024-01-21T10:28:36.275Z,99703.56
2024-01-21T10:29:44.014Z,99695.00
2024-01-21T10:30:46.576Z,99702.25
2024-01-21T10:31:50.030Z,99704.94
2024-01-21T10:32:52.862Z,99705.59
2024-01-21T10:33:57.189Z,99700.75
2024-01-21T10:35:00.340Z,99715.28
2024-01-21T10:36:03.678Z,99720.16
2024-01-21T10:37:06.310Z,99721.22
2024-01-21T10:38:14.598Z,99724.47
2024-01-21T10:39:21.755Z,99717.78
2024-01-21T10:40:26.220Z,99723.41
2024-01-21T10:41:33.165Z,99723.16
2024-01-21T10:42:37.482Z,99725.03
2024-01-21T10:43:41.569Z,99729.34
2024-01-21T10:44:45.810Z,99728.53
2024-01-21T10:45:49.112Z,99723.16
2024-01-21T10:46:53.161Z,99718.34
2024-01-21T10:47:58.292Z,99718.34
2024-01-21T10:49:01.463Z,99703.03
2024-01-21T10:50:06.421Z,99699.28
2024-01-21T10:51:10.284Z,99703.03
2024-01-21T10:52:15.686Z,99702.00
2024-01-21T10:53:18.781Z,99697.97
2024-01-21T10:54:22.142Z,99715.75
2024-01-21T10:55:25.213Z,99716.81
2024-01-21T10:56:28.221Z,99707.69
2024-01-21T10:57:30.617Z,99716.31
2024-01-21T10:58:34.233Z,99728.13
2024-01-21T10:59:40.483Z,99743.72
2024-01-21T11:00:43.670Z,99749.41
2024-01-21T11:01:48.274Z,99758.28
2024-01-21T11:03:30.493Z,99757.06
2024-01-21T11:04:35.214Z,99749.72
2024-01-21T11:05:37.721Z,99755.03
2024-01-21T11:06:48.052Z,99771.97
2024-01-21T11:08:03.093Z,99756.50
2024-01-21T11:09:08.444Z,99761.78
2024-01-21T11:10:11.173Z,99763.41
2024-01-21T11:11:13.542Z,99760.72
2024-01-21T11:12:16.286Z,99767.16
2024-01-21T11:13:51.520Z,99776.22
2024-01-21T11:14:53.838Z,99788.78
2024-01-21T11:15:56.206Z,99804.34
2024-01-21T11:17:03.267Z,99807.03
2024-01-21T11:18:11.593Z,99813.00
2024-01-21T11:19:18.538Z,99801.66
2024-01-21T11:20:28.252Z,99810.88
2024-01-21T11:21:32.019Z,99814.63
2024-01-21T11:22:39.056Z,99821.63
2024-01-21T11:23:41.382Z,99827.25
2024-01-21T11:24:46.818Z,99825.63
2024-01-21T11:25:54.142Z,99822.44
2024-01-21T11:26:58.664Z,99826.19
2024-01-21T11:28:23.891Z,99822.19
2024-01-21T11:29:34.027Z,99819.81
2024-01-21T11:30:36.816Z,99825.47
2024-01-21T11:31:40.409Z,99827.34
2024-01-21T11:32:43.322Z,99819.50
2024-01-21T11:34:02.774Z,99812.25
2024-01-21T11:35:18.585Z,99809.88
2024-01-21T11:36:22.111Z,99802.06
2024-01-21T11:37:24.664Z,99797.50
2024-01-21T11:38:28.576Z,99800.19
2024-01-21T11:39:31.258Z,99790.22
2024-01-21T11:40:33.635Z,99787.53
2024-01-21T11:41:44.171Z,99792.19
2024-01-21T11:42:51.892Z,99782.50
2024-01-21T11:43:55.631Z,99780.88
2024-01-21T11:45:05.412Z,99785.50
2024-01-21T11:46:08.157Z,99784.38
2024-01-21T11:47:10.872Z,99790.56
2024-01-21T11:48:13.451Z,99787.63
2024-01-21T11:49:17.136Z,99787.38
2024-01-21T11:50:19.864Z,99780.38
2024-01-21T11:51:22.260Z,99771.50
2024-01-21T11:52:24.691Z,99771.81
2024-01-21T11:53:27.134Z,99772.06
2024-01-21T11:54:31.927Z,99765.59
2024-01-21T11:55:34.495Z,99772.38
2024-01-21T11:56:37.817Z,99768.84
2024-01-21T11:57:40.564Z,99769.66
2024-01-21T11:58:43.027Z,99777.28
2024-01-21T11:59:45.775Z,99766.50
2024-01-21T12:00:49.498Z,99759.50
2024-01-21T12:01:56.388Z,99747.41
2024-01-21T12:03:00.089Z,99739.09
2024-01-21T12:04:07.155Z,99729.94
2024-01-21T12:05:09.763Z,99731.03
2024-01-21T12:06:12.927Z,99720.25
2024-01-21T12:07:16.818Z,99720.81
2024-01-21T12:08:19.847Z,99714.38
2024-01-21T12:09:26.168Z,99710.59
2024-01-21T12:10:29.872Z,99718.69
2024-01-21T12:11:37.357Z,99728.97
2024-01-21T12:12:39.672Z,99721.94
2024-01-21T12:13:42.554Z,99728.97
2024-01-21T12:14:45.277Z,99723.59
2024-01-21T12:15:51.487Z,99718.78
2024-01-21T12:16:56.005Z,99721.47
2024-01-21T12:17:58.761Z,99718.78
2024-01-21T12:19:02.314Z,99710.69
2024-01-21T12:20:05.615Z,99706.13
2024-01-21T12:21:09.242Z,99707.50
2024-01-21T12:22:11.875Z,99709.38
2024-01-21T12:23:23.870Z,99696.84
2024-01-21T12:24:27.660Z,99696.22
2024-01-21T12:25:31.726Z,99676.81